createdAt,value
2022-11-23T00:00:06.429Z,39.67
2022-11-23T00:01:15.584Z,34.47
2022-11-23T00:02:18.701Z,38.88
2022-11-23T00:03:20.747Z,35.15
2022-11-23T00:04:25.791Z,37.75
2022-11-23T00:05:29.372Z,38.08
2022-11-23T00:06:32.969Z,37.67
2022-11-23T00:07:36.397Z,39.42
2022-11-23T00:08:39.698Z,38.28
2022-11-23T00:09:41.802Z,38.33
2022-11-23T00:10:44.835Z,35.78
2022-11-23T00:11:46.904Z,36.67
2022-11-23T00:12:50.693Z,41.20
2022-11-23T00:13:53.201Z,39.40
2022-11-23T00:14:56.266Z,35.33
2022-11-23T00:15:58.354Z,40.15
2022-11-23T00:17:01.575Z,38.00
2022-11-23T00:18:03.825Z,38.13
2022-11-23T00:19:06.905Z,40.50
2022-11-23T00:20:09.785Z,38.22
2022-11-23T00:21:14.485Z,37.55
2022-11-23T00:22:17.629Z,36.65
2022-11-23T00:23:21.015Z,37.72
2022-11-23T00:24:24.063Z,38.08
2022-11-23T00:25:26.125Z,32.35
2022-11-23T00:26:29.209Z,39.83
2022-11-23T00:27:31.384Z,39.00
2022-11-23T00:28:38.801Z,35.97
2022-11-23T00:29:42.223Z,37.10
2022-11-23T00:30:49.890Z,40.75
2022-11-23T00:31:53.200Z,35.40
2022-11-23T00:32:56.553Z,36.70
2022-11-23T00:34:00.555Z,39.63
2022-11-23T00:35:02.605Z,37.13
2022-11-23T00:36:09.046Z,37.92
2022-11-23T00:37:11.987Z,35.10
2022-11-23T00:38:15.656Z,38.88
2022-11-23T00:39:19.361Z,34.60
2022-11-23T00:40:22.592Z,39.78
2022-11-23T00:41:27.868Z,37.35
2022-11-23T00:42:35.186Z,32.78
2022-11-23T00:43:40.672Z,40.08
2022-11-23T00:44:43.907Z,39.45
2022-11-23T00:45:46.181Z,41.28
2022-11-23T00:46:49.657Z,37.00
2022-11-23T00:47:51.729Z,38.85
2022-11-23T00:48:56.732Z,39.88
2022-11-23T00:50:00.489Z,33.40
2022-11-23T00:51:04.957Z,38.92
2022-11-23T00:52:12.126Z,37.55
2022-11-23T00:53:14.242Z,39.65
2022-11-23T00:54:17.646Z,36.45
2022-11-23T00:55:21.238Z,36.85
2022-11-23T00:56:24.405Z,33.88
2022-11-23T00:57:26.535Z,33.20
2022-11-23T00:58:30.513Z,39.47
2022-11-23T00:59:34.916Z,40.58
2022-11-23T01:00:38.469Z,35.80
2022-11-23T01:01:41.091Z,34.45
2022-11-23T01:02:44.870Z,38.05
2022-11-23T01:03:48.806Z,36.22
2022-11-23T01:04:51.936Z,41.10
2022-11-23T01:05:56.367Z,35.55
2022-11-23T01:06:59.568Z,39.08
2022-11-23T01:08:02.954Z,39.63
2022-11-23T01:09:10.015Z,38.50
2022-11-23T01:10:12.517Z,37.78
2022-11-23T01:11:18.550Z,41.45
2022-11-23T01:12:20.680Z,36.72
2022-11-23T01:13:23.966Z,36.63
2022-11-23T01:14:26.066Z,37.72
2022-11-23T01:15:29.260Z,38.97
2022-11-23T01:16:33.263Z,36.35
2022-11-23T01:17:36.470Z,35.83
2022-11-23T01:18:38.812Z,32.35
2022-11-23T01:19:42.018Z,39.38
2022-11-23T01:20:44.256Z,36.95
2022-11-23T01:21:47.435Z,37.97
2022-11-23T01:22:51.805Z,40.15
2022-11-23T01:23:55.711Z,41.92
2022-11-23T01:24:57.882Z,38.60
2022-11-23T01:26:06.733Z,37.03
2022-11-23T01:27:10.329Z,39.70
2022-11-23T01:28:13.577Z,38.92
2022-11-23T01:29:15.741Z,38.63
2022-11-23T01:30:18.929Z,38.00
2022-11-23T01:31:23.524Z,35.40
2022-11-23T01:32:26.701Z,33.85
2022-11-23T01:33:28.848Z,39.75
2022-11-23T01:34:32.050Z,41.53
2022-11-23T01:35:34.547Z,37.13
2022-11-23T01:36:37.735Z,36.13
2022-11-23T01:37:39.976Z,35.08
2022-11-23T01:38:43.918Z,37.22
2022-11-23T01:39:46.139Z,38.25
2022-11-23T01:40:49.259Z,37.75
2022-11-23T01:41:51.423Z,35.80
2022-11-23T01:42:58.796Z,34.95
2022-11-23T01:44:01.582Z,33.53
2022-11-23T01:45:36.411Z,36.55
2022-11-23T01:46:39.937Z,34.40
2022-11-23T01:47:42.097Z,38.60
2022-11-23T01:48:48.570Z,35.88
2022-11-23T01:49:53.305Z,36.92
2022-11-23T01:50:58.654Z,38.83
2022-11-23T01:52:07.400Z,37.75
2022-11-23T01:53:09.707Z,32.95
2022-11-23T01:54:16.304Z,37.30
2022-11-23T01:55:18.829Z,35.38
2022-11-23T01:56:28.597Z,35.90
2022-11-23T01:57:37.740Z,36.63
2022-11-23T01:58:46.745Z,34.60
2022-11-23T01:59:49.870Z,36.28
2022-11-23T02:00:53.692Z,35.40
2022-11-23T02:01:55.949Z,32.88
2022-11-23T02:03:02.172Z,35.55
2022-11-23T02:04:07.695Z,36.10
2022-11-23T02:05:12.104Z,30.75
2022-11-23T02:06:17.280Z,36.35
2022-11-23T02:07:22.340Z,35.97
2022-11-23T02:08:26.717Z,36.47
2022-11-23T02:09:33.016Z,35.85
2022-11-23T02:10:36.503Z,35.63
2022-11-23T02:11:39.638Z,37.28
2022-11-23T02:12:41.786Z,32.25
2022-11-23T02:13:48.757Z,36.60
2022-11-23T02:14:51.009Z,30.20
2022-11-23T02:15:57.271Z,34.35
2022-11-23T02:16:59.907Z,37.97
2022-11-23T02:18:07.073Z,37.05
2022-11-23T02:19:26.643Z,34.58
2022-11-23T02:20:30.018Z,30.83
2022-11-23T02:21:32.194Z,35.00
2022-11-23T02:22:48.854Z,32.72
2022-11-23T02:23:57.534Z,34.38
2022-11-23T02:25:03.540Z,33.13
2022-11-23T02:26:11.370Z,36.15
2022-11-23T02:27:17.039Z,34.40
2022-11-23T02:28:24.420Z,36.58
2022-11-23T02:29:29.803Z,33.92
2022-11-23T02:30:36.897Z,36.42
2022-11-23T02:31:40.374Z,33.25
2022-11-23T02:32:43.463Z,34.83
2022-11-23T02:33:46.701Z,36.47
2022-11-23T02:34:49.074Z,36.78
2022-11-23T02:35:54.803Z,34.03
2022-11-23T02:36:58.377Z,36.80
2022-11-23T02:38:03.557Z,32.80
2022-11-23T02:39:12.545Z,38.60
2022-11-23T02:40:24.801Z,36.85
2022-11-23T02:41:28.388Z,32.38
2022-11-23T02:42:33.065Z,36.97
2022-11-23T02:43:35.572Z,32.65
2022-11-23T02:44:43.630Z,33.80
2022-11-23T02:45:50.844Z,34.95
2022-11-23T02:46:55.140Z,35.42
2022-11-23T02:47:57.307Z,34.13
2022-11-23T02:49:00.480Z,34.60
2022-11-23T02:50:04.323Z,37.10
2022-11-23T02:51:06.790Z,35.05
2022-11-23T02:52:10.793Z,34.83
2022-11-23T02:53:13.727Z,34.85
2022-11-23T02:54:18.662Z,34.85
2022-11-23T02:55:20.917Z,35.65
2022-11-23T02:56:24.079Z,34.92
2022-11-23T02:57:27.672Z,34.85
2022-11-23T02:58:30.785Z,38.72
2022-11-23T02:59:34.244Z,36.78
2022-11-23T03:00:37.977Z,37.95
2022-11-23T03:01:40.407Z,37.22
2022-11-23T03:02:43.564Z,35.13
2022-11-23T03:03:47.115Z,34.88
2022-11-23T03:04:50.262Z,37.63
2022-11-23T03:05:55.549Z,32.83
2022-11-23T03:06:59.318Z,35.55
2022-11-23T03:08:01.634Z,36.33
2022-11-23T03:09:06.164Z,38.72
2022-11-23T03:10:09.583Z,36.83
2022-11-23T03:11:12.941Z,36.53
2022-11-23T03:12:16.404Z,36.40
2022-11-23T03:13:21.035Z,38.60
2022-11-23T03:14:23.200Z,36.95
2022-11-23T03:15:33.635Z,33.50
2022-11-23T03:16:37.991Z,33.67
2022-11-23T03:17:41.252Z,38.50
2022-11-23T03:18:47.002Z,38.60
2022-11-23T03:19:50.216Z,31.85
2022-11-23T03:20:53.273Z,38.05
2022-11-23T03:21:56.394Z,32.95
2022-11-23T03:22:58.520Z,38.05
2022-11-23T03:24:02.891Z,31.23
2022-11-23T03:25:05.978Z,36.75
2022-11-23T03:26:13.049Z,36.22
2022-11-23T03:27:25.362Z,35.80
2022-11-23T03:28:29.808Z,35.75
2022-11-23T03:29:33.712Z,35.38
2022-11-23T03:30:43.565Z,32.75
2022-11-23T03:31:46.716Z,32.55
2022-11-23T03:32:50.570Z,33.10
2022-11-23T03:33:55.066Z,38.35
2022-11-23T03:35:00.461Z,37.50
2022-11-23T03:36:03.796Z,34.10
2022-11-23T03:37:11.886Z,37.55
2022-11-23T03:38:14.149Z,41.72
2022-11-23T03:39:18.479Z,34.40
2022-11-23T03:40:40.609Z,30.17
2022-11-23T03:41:58.062Z,39.35
2022-11-23T03:43:07.399Z,36.58
2022-11-23T03:44:11.003Z,40.05
2022-11-23T03:45:14.217Z,31.98
2022-11-23T03:46:16.495Z,35.25
2022-11-23T03:47:19.642Z,33.83
2022-11-23T03:48:21.913Z,35.80
2022-11-23T03:49:25.645Z,32.15
2022-11-23T03:50:29.846Z,30.13
2022-11-23T03:51:33.119Z,33.47
2022-11-23T03:52:35.712Z,36.53
2022-11-23T03:53:39.043Z,33.92
2022-11-23T03:54:41.267Z,33.28
2022-11-23T03:55:47.163Z,33.70
2022-11-23T03:56:49.955Z,33.13
2022-11-23T03:57:54.501Z,34.25
2022-11-23T03:58:56.810Z,35.75
2022-11-23T04:00:01.439Z,30.80
2022-11-23T04:01:03.890Z,35.80
2022-11-23T04:02:08.103Z,34.70
2022-11-23T04:03:16.894Z,31.00
2022-11-23T04:04:40.316Z,37.08
2022-11-23T04:05:47.201Z,33.92
2022-11-23T04:08:26.704Z,32.88
2022-11-23T04:09:31.647Z,32.80
2022-11-23T04:10:40.980Z,29.17
2022-11-23T04:11:53.915Z,32.58
2022-11-23T04:12:56.138Z,32.35
2022-11-23T04:13:59.666Z,31.23
2022-11-23T04:15:03.711Z,29.73
2022-11-23T04:16:08.274Z,34.15
2022-11-23T04:17:10.571Z,31.40
2022-11-23T04:18:14.045Z,31.67
2022-11-23T04:19:16.484Z,37.08
2022-11-23T04:20:19.636Z,32.42
2022-11-23T04:21:21.777Z,31.92
2022-11-23T04:22:25.023Z,33.17
2022-11-23T04:23:28.011Z,32.08
2022-11-23T04:24:31.318Z,29.38
2022-11-23T04:25:35.895Z,31.63
2022-11-23T04:26:40.498Z,32.50
2022-11-23T04:27:44.892Z,32.55
2022-11-23T04:28:49.075Z,32.33
2022-11-23T04:29:51.740Z,31.50
2022-11-23T04:30:58.810Z,32.60
2022-11-23T04:32:02.013Z,26.20
2022-11-23T04:33:05.348Z,31.42
2022-11-23T04:34:08.226Z,31.40
2022-11-23T04:35:11.668Z,25.80
2022-11-23T04:36:15.209Z,30.15
2022-11-23T04:37:17.862Z,33.00
2022-11-23T04:38:21.172Z,30.20
2022-11-23T04:39:23.817Z,29.58
2022-11-23T04:40:48.601Z,28.70
2022-11-23T04:41:51.227Z,30.52
2022-11-23T04:43:00.324Z,30.52
2022-11-23T04:44:06.756Z,32.70
2022-11-23T04:45:11.524Z,30.20
2022-11-23T04:46:16.281Z,32.75
2022-11-23T04:47:20.248Z,31.33
2022-11-23T04:48:24.661Z,31.55
2022-11-23T04:49:29.270Z,29.58
2022-11-23T04:50:34.151Z,31.70
2022-11-23T04:51:37.684Z,32.50
2022-11-23T04:52:40.113Z,27.20
2022-11-23T04:53:49.669Z,33.15
2022-11-23T04:54:51.897Z,32.80
2022-11-23T04:55:55.151Z,29.30
2022-11-23T04:56:57.746Z,30.85
2022-11-23T04:58:01.068Z,28.65
2022-11-23T04:59:07.350Z,30.58
2022-11-23T05:00:11.733Z,32.17
2022-11-23T05:01:16.515Z,32.00
2022-11-23T05:02:38.740Z,34.97
2022-11-23T05:03:51.409Z,31.90
2022-11-23T05:04:53.726Z,35.63
2022-11-23T05:06:00.097Z,36.40
2022-11-23T05:07:08.824Z,37.63
2022-11-23T05:08:13.974Z,33.35
2022-11-23T05:09:45.481Z,36.10
2022-11-23T05:10:52.084Z,32.28
2022-11-23T05:11:54.739Z,32.38
2022-11-23T05:12:57.926Z,31.17
2022-11-23T05:14:00.286Z,31.98
2022-11-23T05:15:05.450Z,29.10
2022-11-23T05:16:12.524Z,31.77
2022-11-23T05:17:17.140Z,32.42
2022-11-23T05:18:22.191Z,31.02
2022-11-23T05:19:25.412Z,28.92
2022-11-23T05:20:28.693Z,29.65
2022-11-23T05:21:30.984Z,28.55
2022-11-23T05:22:35.103Z,30.83
2022-11-23T05:23:38.331Z,28.88
2022-11-23T05:24:40.566Z,28.88
2022-11-23T05:25:47.136Z,28.10
2022-11-23T05:26:56.075Z,31.90
2022-11-23T05:28:07.523Z,36.20
2022-11-23T05:29:21.755Z,33.10
2022-11-23T05:30:25.890Z,30.27
2022-11-23T05:31:28.061Z,31.83
2022-11-23T05:32:32.698Z,30.05
2022-11-23T05:33:37.470Z,28.25
2022-11-23T05:34:40.742Z,29.40
2022-11-23T05:35:45.876Z,30.00
2022-11-23T05:36:48.120Z,28.77
2022-11-23T05:37:52.205Z,26.77
2022-11-23T05:38:54.350Z,31.73
2022-11-23T05:40:03.910Z,34.40
2022-11-23T05:41:07.063Z,31.30
2022-11-23T05:42:10.498Z,30.27
2022-11-23T05:43:17.293Z,33.17
2022-11-23T05:44:19.625Z,31.52
2022-11-23T05:45:23.135Z,31.00
2022-11-23T05:46:29.524Z,26.08
2022-11-23T05:47:33.070Z,30.60
2022-11-23T05:48:36.661Z,35.20
2022-11-23T05:49:44.150Z,31.00
2022-11-23T05:50:47.893Z,29.27
2022-11-23T05:52:09.047Z,28.08
2022-11-23T05:53:13.054Z,31.63
2022-11-23T05:54:17.518Z,32.25
2022-11-23T05:55:27.553Z,32.67
2022-11-23T05:56:32.049Z,32.10
2022-11-23T05:57:59.395Z,33.10
2022-11-23T05:59:01.604Z,31.60
2022-11-23T06:00:05.528Z,32.20
2022-11-23T06:01:20.956Z,29.50
2022-11-23T06:02:24.185Z,29.45
2022-11-23T06:03:32.548Z,29.67
2022-11-23T06:04:36.160Z,27.20
2022-11-23T06:05:40.660Z,30.65
2022-11-23T06:06:43.860Z,32.15
2022-11-23T06:07:46.145Z,32.97
2022-11-23T06:08:49.755Z,31.67
2022-11-23T06:09:54.033Z,28.23
2022-11-23T06:10:56.318Z,29.00
2022-11-23T06:11:59.816Z,32.67
2022-11-23T06:13:03.737Z,29.38
2022-11-23T06:14:12.777Z,29.15
2022-11-23T06:15:17.122Z,30.70
2022-11-23T06:16:22.105Z,29.75
2022-11-23T06:17:37.765Z,24.90
2022-11-23T06:18:46.574Z,26.55
2022-11-23T06:19:48.769Z,31.20
2022-11-23T06:20:52.048Z,29.23
2022-11-23T06:21:54.294Z,30.67
2022-11-23T06:22:58.473Z,29.45
2022-11-23T06:24:01.521Z,27.98
2022-11-23T06:25:08.080Z,29.08
2022-11-23T06:26:19.660Z,28.88
2022-11-23T06:27:22.914Z,32.10
2022-11-23T06:28:27.193Z,26.88
2022-11-23T06:29:31.828Z,29.85
2022-11-23T06:30:35.175Z,27.25
2022-11-23T06:31:41.554Z,29.38
2022-11-23T06:32:44.829Z,28.65
2022-11-23T06:33:49.533Z,24.73
2022-11-23T06:34:51.745Z,28.48
2022-11-23T06:35:56.665Z,33.17
2022-11-23T06:37:02.840Z,29.60
2022-11-23T06:38:05.303Z,24.85
2022-11-23T06:39:09.403Z,35.40
2022-11-23T06:40:12.496Z,32.83
2022-11-23T06:41:16.674Z,29.23
2022-11-23T06:43:49.468Z,27.00
2022-11-23T06:45:06.533Z,29.17
2022-11-23T06:46:09.797Z,26.98
2022-11-23T06:47:17.766Z,28.63
2022-11-23T06:48:23.639Z,28.40
2022-11-23T06:49:29.045Z,28.70
2022-11-23T06:50:49.952Z,25.33
2022-11-23T06:51:54.557Z,26.60
2022-11-23T06:52:57.623Z,29.10
2022-11-23T06:54:12.922Z,28.08
2022-11-23T06:55:16.373Z,26.85
2022-11-23T06:56:19.719Z,29.30
2022-11-23T06:57:22.223Z,29.33
2022-11-23T06:58:25.705Z,27.42
2022-11-23T06:59:28.034Z,26.98
2022-11-23T07:00:31.498Z,30.08
2022-11-23T07:01:33.674Z,28.88
2022-11-23T07:02:41.707Z,30.63
2022-11-23T07:03:44.993Z,29.58
2022-11-23T07:05:11.984Z,25.83
2022-11-23T07:06:14.250Z,27.55
2022-11-23T07:07:18.242Z,28.13
2022-11-23T07:08:27.715Z,25.10
2022-11-23T07:09:32.744Z,28.77
2022-11-23T07:10:50.054Z,27.23
2022-11-23T07:11:52.919Z,30.77
2022-11-23T07:12:56.167Z,26.73
2022-11-23T07:14:01.072Z,27.08
2022-11-23T07:15:06.583Z,25.95
2022-11-23T07:16:12.535Z,31.10
2022-11-23T07:17:17.432Z,31.05
2022-11-23T07:18:21.380Z,28.90
2022-11-23T07:19:29.944Z,29.35
2022-11-23T07:20:36.921Z,29.77
2022-11-23T07:21:41.409Z,27.70
2022-11-23T07:22:43.559Z,23.95
2022-11-23T07:23:46.723Z,28.25
2022-11-23T07:24:48.929Z,28.30
2022-11-23T07:25:52.117Z,28.55
2022-11-23T07:26:54.377Z,24.05
2022-11-23T07:27:58.293Z,23.92
2022-11-23T07:29:01.545Z,26.15
2022-11-23T07:30:04.516Z,32.10
2022-11-23T07:31:08.063Z,29.33
2022-11-23T07:32:10.287Z,30.83
2022-11-23T07:33:14.436Z,29.17
2022-11-23T07:34:17.473Z,28.65
2022-11-23T07:35:21.015Z,29.17
2022-11-23T07:36:25.713Z,27.38
2022-11-23T07:37:27.881Z,26.95
2022-11-23T07:38:31.904Z,25.60
2022-11-23T07:39:56.255Z,29.88
2022-11-23T07:41:01.741Z,30.05
2022-11-23T07:42:44.484Z,27.15
2022-11-23T07:43:46.032Z,22.33
2022-11-23T07:44:48.749Z,22.90
2022-11-23T07:45:51.884Z,26.95
2022-11-23T07:46:54.342Z,23.50
2022-11-23T07:48:01.546Z,27.15
2022-11-23T07:49:04.768Z,21.55
2022-11-23T07:50:08.879Z,23.67
2022-11-23T07:51:12.039Z,28.25
2022-11-23T07:52:15.536Z,27.30
2022-11-23T07:53:18.775Z,21.75
2022-11-23T07:54:23.760Z,25.85
2022-11-23T07:55:28.467Z,23.35
2022-11-23T07:56:30.673Z,26.40
2022-11-23T07:57:33.943Z,23.13
2022-11-23T07:58:36.131Z,27.77
2022-11-23T07:59:39.753Z,24.40
2022-11-23T08:00:42.955Z,29.65
2022-11-23T08:01:50.428Z,25.00
2022-11-23T08:03:26.104Z,42.00
2022-11-23T08:04:18.665Z,28.83
2022-11-23T08:05:21.583Z,19.70
2022-11-23T08:06:24.839Z,21.60
2022-11-23T08:07:28.471Z,23.55
2022-11-23T08:08:31.720Z,26.90
2022-11-23T08:09:33.927Z,23.60
2022-11-23T08:10:43.485Z,22.67
2022-11-23T08:11:47.354Z,21.48
2022-11-23T08:12:50.991Z,28.35
2022-11-23T08:13:53.352Z,26.25
2022-11-23T08:14:56.567Z,21.95
2022-11-23T08:15:58.879Z,24.35
2022-11-23T08:17:02.169Z,21.10
2022-11-23T08:18:04.825Z,24.58
2022-11-23T08:19:08.479Z,26.65
2022-11-23T08:20:11.408Z,22.50
2022-11-23T08:21:14.687Z,23.08
2022-11-23T08:22:18.386Z,23.50
2022-11-23T08:23:23.228Z,24.33
2022-11-23T08:24:26.495Z,18.02
2022-11-23T08:25:30.770Z,27.58
2022-11-23T08:26:33.076Z,20.67
2022-11-23T08:27:36.233Z,24.15
2022-11-23T08:28:40.020Z,23.88
2022-11-23T08:29:43.310Z,23.70
2022-11-23T08:30:46.970Z,20.27
2022-11-23T08:31:49.157Z,24.90
2022-11-23T08:32:52.313Z,22.30
2022-11-23T08:33:58.919Z,19.90
2022-11-23T08:35:07.221Z,25.40
2022-11-23T08:36:09.629Z,25.67
2022-11-23T08:37:12.805Z,20.58
2022-11-23T08:38:16.077Z,25.02
2022-11-23T08:39:19.667Z,20.52
2022-11-23T08:40:25.635Z,19.55
2022-11-23T08:41:28.107Z,21.23
2022-11-23T08:42:31.310Z,21.88
2022-11-23T08:43:34.954Z,21.23
2022-11-23T08:44:37.190Z,23.13
2022-11-23T08:45:40.385Z,21.58
2022-11-23T08:46:42.630Z,21.95
2022-11-23T08:47:45.879Z,20.38
2022-11-23T08:48:49.162Z,20.80
2022-11-23T08:49:51.321Z,24.00
2022-11-23T08:50:55.039Z,20.40
2022-11-23T08:51:58.259Z,20.13
2022-11-23T08:53:01.638Z,22.35
2022-11-23T08:54:05.002Z,20.08
2022-11-23T08:55:09.497Z,16.83
2022-11-23T08:56:12.688Z,17.80
2022-11-23T08:57:16.054Z,21.67
2022-11-23T08:58:18.614Z,17.60
2022-11-23T08:59:21.798Z,20.42
2022-11-23T09:00:25.248Z,21.15
2022-11-23T09:01:28.477Z,19.98
2022-11-23T09:02:31.695Z,19.70
2022-11-23T09:03:33.940Z,15.50
2022-11-23T09:04:37.292Z,19.20
2022-11-23T09:05:39.736Z,17.58
2022-11-23T09:06:42.930Z,19.45
2022-11-23T09:07:45.130Z,21.40
2022-11-23T09:08:48.378Z,17.42
2022-11-23T09:09:51.620Z,26.73
2022-11-23T09:10:56.204Z,20.40
2022-11-23T09:11:59.389Z,18.63
2022-11-23T09:13:01.650Z,16.23
2022-11-23T09:14:04.927Z,19.50
2022-11-23T09:15:07.938Z,17.83
2022-11-23T09:16:11.253Z,17.65
2022-11-23T09:17:14.442Z,14.48
2022-11-23T09:18:17.779Z,22.13
2022-11-23T09:19:21.994Z,14.07
2022-11-23T09:20:25.236Z,15.55
2022-11-23T09:21:33.320Z,18.75
2022-11-23T09:22:36.554Z,16.80
2022-11-23T09:23:39.706Z,19.75
2022-11-23T09:24:43.005Z,16.83
2022-11-23T09:25:48.417Z,16.80
2022-11-23T09:26:53.134Z,13.60
2022-11-23T09:27:59.584Z,11.70
2022-11-23T09:29:02.892Z,12.50
2022-11-23T09:30:07.201Z,16.00
2022-11-23T09:31:10.479Z,15.07
2022-11-23T09:32:13.629Z,21.08
2022-11-23T09:33:17.193Z,15.63
2022-11-23T09:34:20.492Z,15.68
2022-11-23T09:35:22.724Z,13.10
2022-11-23T09:36:26.198Z,10.82
2022-11-23T09:37:29.407Z,13.30
2022-11-23T09:38:55.099Z,14.90
2022-11-23T09:39:55.991Z,13.40
2022-11-23T09:41:09.093Z,13.10
2022-11-23T09:42:46.834Z,14.57
2022-11-23T09:44:03.269Z,15.77
2022-11-23T09:45:18.974Z,14.70
2022-11-23T09:46:36.858Z,17.63
2022-11-23T09:47:56.222Z,14.02
2022-11-23T09:49:21.836Z,13.98
2022-11-23T09:50:29.397Z,13.90
2022-11-23T09:51:32.683Z,16.48
2022-11-23T09:52:37.555Z,15.82
2022-11-23T09:53:45.836Z,15.57
2022-11-23T09:54:50.954Z,15.77
2022-11-23T09:55:57.159Z,13.25
2022-11-23T09:57:02.096Z,14.73
2022-11-23T09:58:08.075Z,15.13
2022-11-23T09:59:19.448Z,14.35
2022-11-23T10:00:24.617Z,13.07
2022-11-23T10:01:30.449Z,15.15
2022-11-23T10:02:40.559Z,13.65
2022-11-23T10:03:49.133Z,14.80
2022-11-23T10:04:54.773Z,10.93
2022-11-23T10:06:06.188Z,15.00
2022-11-23T10:07:25.731Z,13.07
2022-11-23T10:08:38.025Z,19.88
2022-11-23T10:09:55.427Z,14.82
2022-11-23T10:11:08.106Z,12.27
2022-11-23T10:12:23.864Z,14.82
2022-11-23T10:13:37.924Z,10.07
2022-11-23T10:14:54.512Z,18.55
2022-11-23T10:16:23.370Z,10.88
2022-11-23T10:17:35.590Z,11.93
2022-11-23T10:18:54.738Z,14.32
2022-11-23T10:20:18.378Z,12.20
2022-11-23T10:21:32.105Z,17.92
2022-11-23T10:22:43.122Z,12.52
2022-11-23T10:23:56.614Z,14.40
2022-11-23T10:25:03.217Z,12.02
2022-11-23T10:26:13.474Z,11.57
2022-11-23T10:27:19.438Z,8.85
2022-11-23T10:28:23.025Z,12.75
2022-11-23T10:29:31.408Z,12.63
2022-11-23T10:30:33.599Z,11.90
2022-11-23T10:31:37.785Z,12.07
2022-11-23T10:32:47.176Z,12.13
2022-11-23T10:33:55.648Z,12.27
2022-11-23T10:35:05.329Z,14.25
2022-11-23T10:36:11.125Z,11.93
2022-11-23T10:37:16.066Z,14.88
2022-11-23T10:38:20.787Z,15.52
2022-11-23T10:39:25.722Z,10.07
2022-11-23T10:40:30.760Z,15.35
2022-11-23T10:41:34.018Z,17.30
2022-11-23T10:42:41.678Z,11.98
2022-11-23T10:43:49.045Z,15.40
2022-11-23T10:44:56.564Z,13.32
2022-11-23T10:46:26.497Z,10.60
2022-11-23T10:47:41.795Z,10.02
2022-11-23T10:48:44.931Z,13.77
2022-11-23T10:50:00.205Z,12.07
2022-11-23T10:51:16.692Z,13.32
2022-11-23T10:52:30.279Z,13.18
2022-11-23T10:53:33.891Z,13.15
2022-11-23T10:54:40.353Z,12.82
2022-11-23T10:55:53.070Z,10.88
2022-11-23T10:56:57.490Z,10.77
2022-11-23T10:58:00.659Z,11.32
2022-11-23T10:59:03.819Z,10.85
2022-11-23T11:00:19.550Z,12.48
2022-11-23T11:01:24.539Z,10.98
2022-11-23T11:02:27.895Z,11.63
2022-11-23T11:03:33.084Z,12.13
2022-11-23T11:04:36.249Z,13.23
2022-11-23T11:07:27.340Z,10.07
2022-11-23T11:08:34.166Z,10.73
2022-11-23T11:09:36.373Z,9.77
2022-11-23T11:10:42.408Z,11.00
2022-11-23T11:11:48.432Z,11.40
2022-11-23T11:12:53.017Z,13.82
2022-11-23T11:14:16.579Z,14.93
2022-11-23T11:15:20.260Z,11.30
2022-11-23T11:16:27.805Z,13.98
2022-11-23T11:17:32.362Z,15.05
2022-11-23T11:18:37.770Z,12.63
2022-11-23T11:19:39.971Z,12.85
2022-11-23T11:20:46.564Z,13.80
2022-11-23T11:21:50.041Z,12.75
2022-11-23T11:22:53.379Z,13.88
2022-11-23T11:24:01.847Z,13.60
2022-11-23T11:25:06.267Z,11.40
2022-11-23T11:26:19.419Z,12.07
2022-11-23T11:27:24.372Z,16.45
2022-11-23T11:28:36.630Z,13.35
2022-11-23T11:29:47.819Z,12.95
2022-11-23T11:31:00.687Z,12.55
2022-11-23T11:32:07.259Z,11.80
2022-11-23T11:33:15.050Z,13.27
2022-11-23T11:34:23.744Z,10.88
2022-11-23T11:35:30.159Z,11.35
2022-11-23T11:36:39.058Z,10.55
2022-11-23T11:37:44.785Z,12.82
2022-11-23T11:39:17.223Z,13.43
2022-11-23T11:40:22.791Z,14.77
2022-11-23T11:41:28.099Z,12.93
2022-11-23T11:42:37.709Z,12.68
2022-11-23T11:43:45.936Z,11.55
2022-11-23T11:44:54.106Z,10.85
2022-11-23T11:46:27.862Z,11.05
2022-11-23T11:47:35.368Z,13.20
2022-11-23T11:48:43.143Z,13.32
2022-11-23T11:49:49.610Z,10.30
2022-11-23T11:50:54.907Z,13.77
2022-11-23T11:52:06.563Z,12.60
2022-11-23T11:53:14.082Z,11.55
2022-11-23T11:54:22.000Z,11.57
2022-11-23T11:55:29.454Z,11.90
2022-11-23T11:56:39.481Z,9.48
2022-11-23T11:57:47.239Z,11.95
2022-11-23T11:58:57.821Z,13.65
2022-11-23T12:00:04.040Z,8.75
2022-11-23T12:01:20.829Z,13.90
2022-11-23T12:02:25.443Z,13.85
2022-11-23T12:03:41.431Z,8.32
2022-11-23T12:04:51.285Z,12.77
2022-11-23T12:05:57.191Z,11.20
2022-11-23T12:07:10.989Z,13.20
2022-11-23T12:08:19.732Z,11.20
2022-11-23T12:09:26.516Z,11.55
2022-11-23T12:10:35.109Z,10.18
2022-11-23T12:11:37.391Z,15.60
2022-11-23T12:12:40.968Z,11.60
2022-11-23T12:13:46.995Z,11.32
2022-11-23T12:14:49.265Z,11.32
2022-11-23T12:16:02.404Z,13.90
2022-11-23T12:17:32.575Z,14.27
2022-11-23T12:18:48.724Z,13.60
2022-11-23T12:19:56.882Z,15.05
2022-11-23T12:21:05.168Z,9.80
2022-11-23T12:22:31.461Z,13.23
2022-11-23T12:23:46.465Z,15.18
2022-11-23T12:25:04.492Z,11.50
2022-11-23T12:26:20.897Z,12.95
2022-11-23T12:27:30.837Z,13.95
2022-11-23T12:28:48.998Z,10.98
2022-11-23T12:30:04.611Z,11.85
2022-11-23T12:31:18.238Z,9.45
2022-11-23T12:32:30.331Z,10.35
2022-11-23T12:33:49.125Z,12.40
2022-11-23T12:35:24.618Z,11.27
2022-11-23T12:36:50.414Z,7.90
2022-11-23T12:38:06.057Z,9.35
2022-11-23T12:39:21.286Z,9.15
2022-11-23T12:40:45.524Z,10.57
2022-11-23T12:41:54.147Z,9.18
2022-11-23T12:43:02.402Z,10.02
2022-11-23T12:44:25.218Z,10.20
2022-11-23T12:45:50.444Z,11.30
2022-11-23T12:47:01.654Z,9.10
2022-11-23T12:48:21.960Z,7.90
2022-11-23T12:49:38.991Z,9.27
2022-11-23T12:50:49.083Z,10.98
2022-11-23T12:52:01.301Z,8.43
2022-11-23T12:53:16.688Z,11.55
2022-11-23T12:54:33.260Z,9.93
2022-11-23T12:55:46.755Z,10.32
2022-11-23T12:57:15.137Z,10.50
2022-11-23T12:58:24.510Z,13.75
2022-11-23T12:59:36.688Z,11.70
2022-11-23T13:00:46.412Z,15.38
2022-11-23T13:01:53.481Z,9.63
2022-11-23T13:03:30.820Z,10.68
2022-11-23T13:05:07.377Z,7.70
2022-11-23T13:07:05.522Z,12.48
2022-11-23T13:08:44.881Z,10.98
2022-11-23T13:10:09.145Z,12.60
2022-11-23T13:11:29.190Z,8.95
2022-11-23T13:12:45.011Z,13.18
2022-11-23T13:14:04.976Z,11.27
2022-11-23T13:15:25.505Z,11.48
2022-11-23T13:16:57.846Z,9.68
2022-11-23T13:18:12.197Z,7.72
2022-11-23T13:19:35.118Z,11.52
2022-11-23T13:20:56.591Z,10.25
2022-11-23T13:22:01.121Z,9.02
2022-11-23T13:23:06.456Z,10.73
2022-11-23T13:24:28.802Z,9.30
2022-11-23T13:25:32.698Z,9.75
2022-11-23T13:26:35.982Z,12.05
2022-11-23T13:27:58.362Z,9.68
2022-11-23T13:29:21.829Z,9.68
2022-11-23T13:30:51.943Z,8.77
2022-11-23T13:32:42.816Z,9.80
2022-11-23T13:34:51.131Z,8.88
2022-11-23T13:35:59.249Z,10.35
2022-11-23T13:37:13.528Z,8.20
2022-11-23T13:38:25.947Z,11.05
2022-11-23T13:40:03.947Z,10.95
2022-11-23T13:41:56.065Z,8.82
2022-11-23T13:43:03.534Z,10.27
2022-11-23T13:44:12.301Z,11.85
2022-11-23T13:45:26.155Z,9.88
2022-11-23T13:46:29.029Z,9.00
2022-11-23T13:47:32.308Z,7.63
2022-11-23T13:48:59.791Z,10.95
2022-11-23T13:50:18.938Z,8.18
2022-11-23T13:51:30.272Z,9.43
2022-11-23T13:52:33.511Z,9.13
2022-11-23T13:53:40.261Z,13.63
2022-11-23T13:54:54.670Z,10.07
2022-11-23T13:55:59.096Z,7.63
2022-11-23T13:57:06.369Z,10.00
2022-11-23T13:58:37.842Z,11.52
2022-11-23T13:59:41.099Z,9.70
2022-11-23T14:00:50.811Z,6.03
2022-11-23T14:02:35.111Z,13.55
2022-11-23T14:03:52.360Z,11.45
2022-11-23T14:05:54.923Z,7.10
2022-11-23T14:07:01.670Z,12.50
2022-11-23T14:08:06.396Z,10.40
2022-11-23T14:09:16.607Z,9.18
2022-11-23T14:10:23.946Z,8.93
2022-11-23T14:11:27.423Z,11.48
2022-11-23T14:12:38.333Z,7.68
2022-11-23T14:13:47.358Z,9.50
2022-11-23T14:14:56.643Z,11.70
2022-11-23T14:16:02.440Z,13.98
2022-11-23T14:17:33.572Z,10.52
2022-11-23T14:18:56.305Z,13.25
2022-11-23T14:20:17.583Z,13.88
2022-11-23T14:21:26.723Z,8.00
2022-11-23T14:22:41.624Z,11.77
2022-11-23T14:24:41.730Z,9.32
2022-11-23T14:25:53.914Z,7.97
2022-11-23T14:27:38.982Z,8.35
2022-11-23T14:28:46.392Z,7.65
2022-11-23T14:30:07.084Z,8.63
2022-11-23T14:31:22.831Z,9.82
2022-11-23T14:32:37.157Z,6.15
2022-11-23T14:33:44.806Z,8.55
2022-11-23T14:34:57.335Z,8.57
2022-11-23T14:36:13.543Z,11.68
2022-11-23T14:37:32.809Z,8.98